createdAt,value
2018-11-02T00:00:59.139Z,18.52
2018-11-02T00:03:27.206Z,17.90
2018-11-02T00:05:55.329Z,18.40
2018-11-02T00:08:23.547Z,18.67
2018-11-02T00:10:51.564Z,18.80
2018-11-02T00:13:19.730Z,19.35
2018-11-02T00:15:48.032Z,18.25
2018-11-02T00:18:16.886Z,17.60
2018-11-02T00:20:45.238Z,18.17
2018-11-02T00:23:13.288Z,18.95
2018-11-02T00:25:43.722Z,19.32
2018-11-02T00:28:12.525Z,18.45
2018-11-02T00:30:40.803Z,18.30
2018-11-02T00:33:09.191Z,18.95
2018-11-02T00:35:37.452Z,18.30
2018-11-02T00:38:05.815Z,18.85
2018-11-02T00:40:34.355Z,22.35
2018-11-02T00:43:02.694Z,20.25
2018-11-02T00:45:31.341Z,18.23
2018-11-02T00:47:59.426Z,18.27
2018-11-02T00:50:27.680Z,17.60
2018-11-02T00:52:55.902Z,17.45
2018-11-02T00:55:24.084Z,20.00
2018-11-02T00:57:52.427Z,15.10
2018-11-02T01:00:20.923Z,14.43
2018-11-02T01:02:50.810Z,17.25
2018-11-02T01:05:19.023Z,21.33
2018-11-02T01:07:47.122Z,22.87
2018-11-02T01:10:15.157Z,19.20
2018-11-02T01:12:43.580Z,19.53
2018-11-02T01:15:14.260Z,20.00
2018-11-02T01:17:42.763Z,19.00
2018-11-02T01:20:11.405Z,20.62
2018-11-02T01:22:39.728Z,21.77
2018-11-02T01:25:08.465Z,20.17
2018-11-02T01:27:36.477Z,20.20
2018-11-02T01:30:05.139Z,19.12
2018-11-02T01:32:33.160Z,18.07
2018-11-02T01:35:01.214Z,18.37
2018-11-02T01:37:29.312Z,18.10
2018-11-02T01:39:57.455Z,18.30
2018-11-02T01:42:25.647Z,19.67
2018-11-02T01:44:53.935Z,18.23
2018-11-02T01:47:22.016Z,17.15
2018-11-02T01:49:50.190Z,17.33
2018-11-02T01:52:18.226Z,18.25
2018-11-02T01:54:46.327Z,19.27
2018-11-02T01:57:14.329Z,19.00
2018-11-02T01:59:42.460Z,18.90
2018-11-02T02:02:10.615Z,17.82
2018-11-02T02:04:38.730Z,17.90
2018-11-02T02:07:06.955Z,17.32
2018-11-02T02:09:35.152Z,17.98
2018-11-02T02:12:03.240Z,17.52
2018-11-02T02:14:31.416Z,18.50
2018-11-02T02:16:59.484Z,19.57
2018-11-02T02:19:27.653Z,18.60
2018-11-02T02:21:55.940Z,19.90
2018-11-02T02:24:24.000Z,17.87
2018-11-02T02:26:52.102Z,17.10
2018-11-02T02:29:20.167Z,18.25
2018-11-02T02:31:48.345Z,20.20
2018-11-02T02:34:19.713Z,16.80
2018-11-02T02:36:47.863Z,16.80
2018-11-02T02:39:16.070Z,12.98
2018-11-02T02:41:44.086Z,13.20
2018-11-02T02:44:12.355Z,13.03
2018-11-02T02:46:40.533Z,14.95
2018-11-02T02:49:08.752Z,15.10
2018-11-02T02:51:36.915Z,13.83
2018-11-02T02:54:05.236Z,12.80
2018-11-02T02:56:33.340Z,13.53
2018-11-02T02:59:01.417Z,16.17
2018-11-02T03:01:29.532Z,17.27
2018-11-02T03:03:57.671Z,16.60
2018-11-02T03:06:26.065Z,15.50
2018-11-02T03:08:54.420Z,17.75
2018-11-02T03:11:22.623Z,14.20
2018-11-02T03:13:50.796Z,16.05
2018-11-02T03:16:18.874Z,16.55
2018-11-02T03:18:47.328Z,13.45
2018-11-02T03:21:15.329Z,13.23
2018-11-02T03:23:43.404Z,11.50
2018-11-02T03:26:11.454Z,12.75
2018-11-02T03:28:39.548Z,12.40
2018-11-02T03:31:07.723Z,12.20
2018-11-02T03:33:35.681Z,12.30
2018-11-02T03:36:03.944Z,12.93
2018-11-02T03:38:32.266Z,13.50
2018-11-02T03:41:00.329Z,13.48
2018-11-02T03:43:28.377Z,14.93
2018-11-02T03:45:56.492Z,14.73
2018-11-02T03:48:24.520Z,14.98
2018-11-02T03:50:52.825Z,15.03
2018-11-02T03:53:20.984Z,16.10
2018-11-02T03:55:49.415Z,15.53
2018-11-02T03:58:17.424Z,15.70
2018-11-02T04:00:46.420Z,13.95
2018-11-02T04:03:14.630Z,12.95
2018-11-02T04:05:42.660Z,16.62
2018-11-02T04:08:10.759Z,17.40
2018-11-02T04:10:38.814Z,12.53
2018-11-02T04:13:07.016Z,14.90
2018-11-02T04:15:35.204Z,13.80
2018-11-02T04:18:03.266Z,15.58
2018-11-02T04:20:31.339Z,15.43
2018-11-02T04:22:59.413Z,17.17
2018-11-02T04:25:27.471Z,20.65
2018-11-02T04:27:55.636Z,21.73
2018-11-02T04:30:23.928Z,18.10
2018-11-02T04:32:51.995Z,18.95
2018-11-02T04:35:20.079Z,18.92
2018-11-02T04:37:48.266Z,18.75
2018-11-02T04:40:16.564Z,19.45
2018-11-02T04:42:44.708Z,20.05
2018-11-02T04:45:12.875Z,21.00
2018-11-02T04:47:41.080Z,21.60
2018-11-02T04:50:09.420Z,22.00
2018-11-02T04:52:37.507Z,18.20
2018-11-02T04:55:06.375Z,15.30
2018-11-02T04:57:34.459Z,14.40
2018-11-02T05:00:03.087Z,15.30
2018-11-02T05:02:31.121Z,16.42
2018-11-02T05:04:59.214Z,14.47
2018-11-02T05:07:27.348Z,15.17
2018-11-02T05:09:55.587Z,14.47
2018-11-02T05:12:23.620Z,14.50
2018-11-02T05:14:51.805Z,16.35
2018-11-02T05:17:19.936Z,16.48
2018-11-02T05:19:48.024Z,16.10
2018-11-02T05:22:16.272Z,12.82
2018-11-02T05:24:44.534Z,16.15
2018-11-02T05:27:12.681Z,14.65
2018-11-02T05:29:40.763Z,16.52
2018-11-02T05:32:08.904Z,18.27
2018-11-02T05:34:36.983Z,17.48
2018-11-02T05:37:05.271Z,15.88
2018-11-02T05:39:33.411Z,15.78
2018-11-02T05:42:01.532Z,15.25
2018-11-02T05:44:29.674Z,15.40
2018-11-02T05:46:57.897Z,14.93
2018-11-02T05:49:25.849Z,15.40
2018-11-02T05:51:53.910Z,17.17
2018-11-02T05:54:22.082Z,18.13
2018-11-02T05:56:50.260Z,16.10
2018-11-02T05:59:18.583Z,20.25
2018-11-02T06:01:46.657Z,18.87
2018-11-02T06:04:15.021Z,15.98
2018-11-02T06:06:43.280Z,17.07
2018-11-02T06:09:11.331Z,16.77
2018-11-02T06:11:39.387Z,14.90
2018-11-02T06:14:07.681Z,15.38
2018-11-02T06:16:35.790Z,14.55
2018-11-02T06:19:03.936Z,14.80
2018-11-02T06:21:32.235Z,14.43
2018-11-02T06:24:00.523Z,15.50
2018-11-02T06:26:28.773Z,15.00
2018-11-02T06:28:56.854Z,14.90
2018-11-02T06:31:24.930Z,15.70
2018-11-02T06:33:53.013Z,15.53
2018-11-02T06:36:21.057Z,15.08
2018-11-02T06:38:49.372Z,14.28
2018-11-02T06:41:17.511Z,13.43
2018-11-02T06:43:45.723Z,15.43
2018-11-02T06:46:13.801Z,17.05
2018-11-02T06:48:41.812Z,16.20
2018-11-02T06:51:10.029Z,15.93
2018-11-02T06:53:38.097Z,14.07
2018-11-02T06:56:06.390Z,13.60
2018-11-02T06:58:34.466Z,13.85
2018-11-02T07:01:02.604Z,26.20
2018-11-02T07:03:30.699Z,32.55
2018-11-02T07:05:58.748Z,24.07
2018-11-02T07:08:27.068Z,18.73
2018-11-02T07:10:55.443Z,17.65
2018-11-02T07:13:23.528Z,38.15
2018-11-02T07:15:51.574Z,25.48
2018-11-02T07:18:19.633Z,17.32
2018-11-02T07:20:47.815Z,17.70
2018-11-02T07:23:15.991Z,17.67
2018-11-02T07:25:44.092Z,18.77
2018-11-02T07:28:12.243Z,16.10
2018-11-02T07:30:40.478Z,14.15
2018-11-02T07:33:08.478Z,15.10
2018-11-02T07:35:36.841Z,15.60
2018-11-02T07:38:05.214Z,15.10
2018-11-02T07:40:33.241Z,13.70
2018-11-02T07:43:01.301Z,14.98
2018-11-02T07:45:29.348Z,15.83
2018-11-02T07:47:57.444Z,16.02
2018-11-02T07:50:25.500Z,17.35
2018-11-02T07:52:53.629Z,16.37
2018-11-02T07:55:21.752Z,16.50
2018-11-02T07:57:49.845Z,15.18
2018-11-02T08:00:18.112Z,14.70
2018-11-02T08:02:46.962Z,15.88
2018-11-02T08:05:15.628Z,15.25
2018-11-02T08:07:43.640Z,15.08
2018-11-02T08:10:11.832Z,14.93
2018-11-02T08:12:39.904Z,15.40
2018-11-02T08:15:09.634Z,16.10
2018-11-02T08:17:38.634Z,16.77
2018-11-02T08:20:07.187Z,17.30
2018-11-02T08:22:35.600Z,18.42
2018-11-02T08:25:04.168Z,19.73
2018-11-02T08:27:32.272Z,17.50
2018-11-02T08:30:00.519Z,19.23
2018-11-02T08:32:28.719Z,18.17
2018-11-02T08:34:57.016Z,17.87
2018-11-02T08:37:25.271Z,17.10
2018-11-02T08:39:54.012Z,16.75
2018-11-02T08:42:22.551Z,16.20
2018-11-02T08:44:50.795Z,16.40
2018-11-02T08:47:19.358Z,16.52
2018-11-02T08:49:47.676Z,16.77
2018-11-02T08:52:15.876Z,16.48
2018-11-02T08:54:44.532Z,16.65
2018-11-02T08:57:12.883Z,16.20
2018-11-02T08:59:41.046Z,16.05
2018-11-02T09:02:09.074Z,15.85
2018-11-02T09:04:37.252Z,16.17
2018-11-02T09:07:05.896Z,16.23
2018-11-02T09:09:34.156Z,16.20
2018-11-02T09:12:02.612Z,15.30
2018-11-02T09:14:31.514Z,20.92
2018-11-02T09:16:59.661Z,17.00
2018-11-02T09:19:27.959Z,16.15
2018-11-02T09:21:56.118Z,18.75
2018-11-02T09:24:24.184Z,18.52
2018-11-02T09:26:52.278Z,18.60
2018-11-02T09:29:20.426Z,18.27
2018-11-02T09:31:48.588Z,17.23
2018-11-02T09:34:16.769Z,17.80
2018-11-02T09:36:44.839Z,17.65
2018-11-02T09:39:13.254Z,17.87
2018-11-02T09:41:41.506Z,17.50
2018-11-02T09:44:10.188Z,17.07
2018-11-02T09:46:38.355Z,20.15
2018-11-02T09:49:06.530Z,21.40
2018-11-02T09:51:35.435Z,15.98
2018-11-02T09:54:03.728Z,14.80
2018-11-02T09:56:31.775Z,14.40
2018-11-02T09:59:00.129Z,14.65
2018-11-02T10:01:28.247Z,23.33
2018-11-02T10:03:56.414Z,15.75
2018-11-02T10:06:24.684Z,17.20
2018-11-02T10:08:53.235Z,19.48
2018-11-02T10:11:21.539Z,19.50
2018-11-02T10:13:49.623Z,17.65
2018-11-02T10:16:17.788Z,18.70
2018-11-02T10:18:45.976Z,18.70
2018-11-02T10:21:14.036Z,21.20
2018-11-02T10:23:42.275Z,18.60
2018-11-02T10:26:10.617Z,19.30
2018-11-02T10:28:39.236Z,20.00
2018-11-02T10:31:10.401Z,19.12
2018-11-02T10:33:38.813Z,20.88
2018-11-02T10:36:07.255Z,19.52
2018-11-02T10:38:35.660Z,19.20
2018-11-02T10:41:04.780Z,19.30
2018-11-02T10:43:32.936Z,19.00
2018-11-02T10:46:02.374Z,19.02
2018-11-02T10:48:30.532Z,18.77
2018-11-02T10:50:59.179Z,18.90
2018-11-02T10:53:28.015Z,19.02
2018-11-02T10:55:57.079Z,18.57
2018-11-02T10:58:25.398Z,18.62
2018-11-02T11:01:00.472Z,18.77
2018-11-02T11:03:28.694Z,18.00
2018-11-02T11:05:57.316Z,19.50
2018-11-02T11:08:25.373Z,18.37
2018-11-02T11:10:53.865Z,19.98
2018-11-02T11:13:22.545Z,23.52
2018-11-02T11:15:51.640Z,21.33
2018-11-02T11:18:21.628Z,19.90
2018-11-02T11:20:51.124Z,19.50
2018-11-02T11:23:20.546Z,19.40
2018-11-02T11:25:48.619Z,24.10
2018-11-02T11:28:17.560Z,21.77
2018-11-02T11:30:45.802Z,44.10
2018-11-02T11:33:13.991Z,20.57
2018-11-02T11:35:42.063Z,20.40
2018-11-02T11:38:10.567Z,21.12
2018-11-02T11:40:38.830Z,20.23
2018-11-02T11:43:06.864Z,20.37
2018-11-02T11:45:34.958Z,19.55
2018-11-02T11:48:03.212Z,20.55
2018-11-02T11:50:31.315Z,21.17
2018-11-02T11:52:59.371Z,20.52
2018-11-02T11:55:27.548Z,20.30
2018-11-02T11:57:55.599Z,21.35
2018-11-02T12:00:23.808Z,20.70
2018-11-02T12:02:52.652Z,20.48
2018-11-02T12:05:22.041Z,19.80
2018-11-02T12:07:50.493Z,20.27
2018-11-02T12:10:21.011Z,20.45
2018-11-02T12:12:49.175Z,19.70
2018-11-02T12:15:18.497Z,19.80
2018-11-02T12:17:46.956Z,19.07
2018-11-02T12:20:17.700Z,20.52
2018-11-02T12:22:46.472Z,21.20
2018-11-02T12:25:14.859Z,20.65
2018-11-02T12:27:43.062Z,19.90
2018-11-02T12:30:13.123Z,18.40
2018-11-02T12:32:41.466Z,18.92
2018-11-02T12:35:11.818Z,18.10
2018-11-02T12:37:40.156Z,18.25
2018-11-02T12:40:10.597Z,18.57
2018-11-02T12:42:39.374Z,18.25
2018-11-02T12:45:08.812Z,16.90
2018-11-02T12:47:37.645Z,17.50
2018-11-02T12:50:08.017Z,17.20
2018-11-02T12:52:36.366Z,17.60
2018-11-02T12:55:04.667Z,17.60
2018-11-02T12:57:32.750Z,17.15
2018-11-02T13:00:00.901Z,17.40
2018-11-02T13:02:28.963Z,17.20
2018-11-02T13:04:57.049Z,16.40
2018-11-02T13:07:25.201Z,16.65
2018-11-02T13:09:53.301Z,16.52
2018-11-02T13:12:21.553Z,16.85
2018-11-02T13:14:49.659Z,16.70
2018-11-02T13:17:17.697Z,16.50
2018-11-02T13:19:45.912Z,16.40
2018-11-02T13:22:14.333Z,17.30
2018-11-02T13:24:42.350Z,17.20
2018-11-02T13:27:10.540Z,17.23
2018-11-02T13:29:38.671Z,17.65
2018-11-02T13:32:06.787Z,18.23
2018-11-02T13:34:34.820Z,18.67
2018-11-02T13:37:03.011Z,17.32
2018-11-02T13:39:31.177Z,18.20
2018-11-02T13:41:59.275Z,17.62
2018-11-02T13:44:27.315Z,17.60
2018-11-02T13:46:55.380Z,18.15
2018-11-02T13:49:23.473Z,17.75
2018-11-02T13:51:51.571Z,17.65
2018-11-02T13:54:19.707Z,17.32
2018-11-02T13:56:47.915Z,17.73
2018-11-02T13:59:15.977Z,18.20
2018-11-02T14:01:44.072Z,18.05
2018-11-02T14:04:12.150Z,17.20
2018-11-02T14:06:40.286Z,18.70
2018-11-02T14:09:08.699Z,18.70
2018-11-02T14:11:36.968Z,19.57
2018-11-02T14:14:05.265Z,19.80
2018-11-02T14:16:33.508Z,18.37
2018-11-02T14:19:01.597Z,19.55
2018-11-02T14:21:30.571Z,18.45
2018-11-02T14:23:58.678Z,19.42
2018-11-02T14:26:26.717Z,19.30
2018-11-02T14:28:54.908Z,21.73
2018-11-02T14:31:22.956Z,20.70
2018-11-02T14:33:51.077Z,20.40
2018-11-02T14:36:19.524Z,21.20
2018-11-02T14:38:47.727Z,21.00
2018-11-02T14:41:15.816Z,21.50
2018-11-02T14:43:43.869Z,21.23
2018-11-02T14:46:11.973Z,21.68
2018-11-02T14:48:40.143Z,21.60
2018-11-02T14:51:08.208Z,21.57
2018-11-02T14:53:36.358Z,22.52
2018-11-02T14:56:04.438Z,23.13
2018-11-02T14:58:32.479Z,23.10
2018-11-02T15:01:00.795Z,23.50
2018-11-02T15:03:28.928Z,23.02
2018-11-02T15:05:57.038Z,21.30
2018-11-02T15:08:25.079Z,26.23
2018-11-02T15:10:53.175Z,25.68
2018-11-02T15:13:21.375Z,22.35
2018-11-02T15:15:49.408Z,21.90
2018-11-02T15:18:17.695Z,21.90
2018-11-02T15:20:45.887Z,22.60
2018-11-02T15:23:13.990Z,23.70
2018-11-02T15:25:42.000Z,32.83
2018-11-02T15:28:10.108Z,43.35
2018-11-02T15:30:38.147Z,65.00
2018-11-02T15:33:06.546Z,39.27
2018-11-02T15:35:34.645Z,22.82
2018-11-02T15:38:02.669Z,21.45
2018-11-02T15:40:30.804Z,20.20
2018-11-02T15:42:58.937Z,21.97
2018-11-02T15:45:27.209Z,22.30
2018-11-02T15:47:55.497Z,21.95
2018-11-02T15:50:23.600Z,22.35
2018-11-02T15:52:51.744Z,23.30
2018-11-02T15:55:19.832Z,23.30
2018-11-02T15:57:47.877Z,24.10
2018-11-02T16:00:17.307Z,25.02
2018-11-02T16:02:46.763Z,24.30
2018-11-02T16:05:14.764Z,25.12
2018-11-02T16:07:42.870Z,25.40
2018-11-02T16:10:11.715Z,25.60
2018-11-02T16:12:40.441Z,26.25
2018-11-02T16:15:09.414Z,26.50
2018-11-02T16:17:37.658Z,26.97
2018-11-02T16:20:07.274Z,25.92
2018-11-02T16:22:35.343Z,27.85
2018-11-02T16:25:03.688Z,27.95
2018-11-02T16:27:31.723Z,28.38
2018-11-02T16:30:00.031Z,28.42
2018-11-02T16:32:28.084Z,29.67
2018-11-02T16:34:56.923Z,30.63
2018-11-02T16:37:25.713Z,30.05
2018-11-02T16:39:53.854Z,29.40
2018-11-02T16:42:22.021Z,31.90
2018-11-02T16:44:50.766Z,29.87
2018-11-02T16:47:18.783Z,29.45
2018-11-02T16:49:47.066Z,29.50
2018-11-02T16:52:15.156Z,29.40
2018-11-02T16:54:43.277Z,29.60
2018-11-02T16:57:11.333Z,30.77
2018-11-02T16:59:39.544Z,30.70
2018-11-02T17:02:07.727Z,31.42
2018-11-02T17:04:35.924Z,31.33
2018-11-02T17:07:04.204Z,29.07
2018-11-02T17:09:32.212Z,30.13
2018-11-02T17:12:00.304Z,29.87
2018-11-02T17:14:28.744Z,29.55
2018-11-02T17:16:58.095Z,31.60
2018-11-02T17:19:26.200Z,33.88
2018-11-02T17:21:54.253Z,33.18
2018-11-02T17:24:22.487Z,33.83
2018-11-02T17:26:50.586Z,31.75
2018-11-02T17:29:18.703Z,29.77
2018-11-02T17:31:46.745Z,25.20
2018-11-02T17:34:15.255Z,24.05
2018-11-02T17:36:43.390Z,23.85
2018-11-02T17:39:11.591Z,27.30
2018-11-02T17:41:39.760Z,27.05
2018-11-02T17:44:08.185Z,26.33
2018-11-02T17:46:36.330Z,22.32
2018-11-02T17:49:04.506Z,21.00
2018-11-02T17:51:32.676Z,21.77
2018-11-02T17:54:00.832Z,25.80
2018-11-02T17:56:28.927Z,24.87
2018-11-02T17:58:57.176Z,23.60
2018-11-02T18:01:25.277Z,23.18
2018-11-02T18:03:53.335Z,22.80
2018-11-02T18:06:21.399Z,23.95
2018-11-02T18:08:49.475Z,31.17
2018-11-02T18:11:17.544Z,32.88
2018-11-02T18:13:45.782Z,44.98
2018-11-02T18:16:13.895Z,42.13
2018-11-02T18:18:42.034Z,32.48
2018-11-02T18:21:10.234Z,34.83
2018-11-02T18:23:38.430Z,40.35
2018-11-02T18:26:06.184Z,32.30
2018-11-02T18:28:34.272Z,29.42
2018-11-02T18:31:02.342Z,31.05
2018-11-02T18:33:30.421Z,29.72
2018-11-02T18:35:58.680Z,28.17
2018-11-02T18:38:26.968Z,27.32
2018-11-02T18:40:55.144Z,27.17
2018-11-02T18:43:23.223Z,28.07
2018-11-02T18:45:51.409Z,28.60
2018-11-02T18:48:20.876Z,28.17
2018-11-02T18:50:49.297Z,28.25
2018-11-02T18:53:17.436Z,26.90
2018-11-02T18:55:45.544Z,28.00
2018-11-02T18:58:13.590Z,26.85
2018-11-02T19:00:41.793Z,26.35
2018-11-02T19:03:09.846Z,26.25
2018-11-02T19:05:38.225Z,25.70
2018-11-02T19:08:06.416Z,25.30
2018-11-02T19:10:34.498Z,28.30
2018-11-02T19:13:02.613Z,27.70
2018-11-02T19:15:30.678Z,28.83
2018-11-02T19:17:58.774Z,30.60
2018-11-02T19:20:26.915Z,29.70
2018-11-02T19:22:54.973Z,30.12
2018-11-02T19:25:23.037Z,27.60
2018-11-02T19:27:51.186Z,30.10
2018-11-02T19:30:19.273Z,29.70
2018-11-02T19:32:47.363Z,29.72
2018-11-02T19:35:15.546Z,29.32
2018-11-02T19:37:43.977Z,28.55
2018-11-02T19:40:13.256Z,30.12
2018-11-02T19:42:41.584Z,31.55
2018-11-02T19:45:10.063Z,29.90
2018-11-02T19:47:43.863Z,27.90
2018-11-02T19:50:13.525Z,27.60
2018-11-02T19:52:41.652Z,26.85
2018-11-02T19:55:10.802Z,26.77
2018-11-02T19:57:39.052Z,26.05
2018-11-02T20:00:08.826Z,27.95
2018-11-02T20:02:37.430Z,29.60
2018-11-02T20:05:07.008Z,27.35
2018-11-02T20:07:35.218Z,27.50
2018-11-02T20:10:03.465Z,29.37
2018-11-02T20:12:31.597Z,30.25
2018-11-02T20:14:59.721Z,31.50
2018-11-02T20:17:27.850Z,31.33
2018-11-02T20:19:55.876Z,31.60
2018-11-02T20:22:23.963Z,36.93
2018-11-02T20:24:52.049Z,38.73
2018-11-02T20:27:20.084Z,38.60
2018-11-02T20:29:48.175Z,41.25
2018-11-02T20:32:16.430Z,41.40
2018-11-02T20:34:44.540Z,41.53
2018-11-02T20:37:12.679Z,36.60
2018-11-02T20:39:41.062Z,35.17
2018-11-02T20:42:09.087Z,37.15
2018-11-02T20:44:37.144Z,37.60
2018-11-02T20:47:05.423Z,38.70
2018-11-02T20:49:33.513Z,44.77
2018-11-02T20:52:01.619Z,44.55
2018-11-02T20:54:29.842Z,51.02
2018-11-02T20:56:58.368Z,51.60
2018-11-02T20:59:26.614Z,49.67
2018-11-02T21:01:54.732Z,48.52
2018-11-02T21:04:23.043Z,44.25
2018-11-02T21:06:51.229Z,41.10
2018-11-02T21:09:19.534Z,37.73
2018-11-02T21:11:47.355Z,35.68
2018-11-02T21:14:15.533Z,36.73
2018-11-02T21:16:43.577Z,35.05
2018-11-02T21:19:11.754Z,36.42
2018-11-02T21:21:39.840Z,36.00
2018-11-02T21:24:08.067Z,35.23
2018-11-02T21:26:36.159Z,36.77
2018-11-02T21:29:04.657Z,35.55
2018-11-02T21:31:32.796Z,35.13
2018-11-02T21:34:01.148Z,35.45
2018-11-02T21:36:29.355Z,34.05
2018-11-02T21:38:57.392Z,33.78
2018-11-02T21:41:25.502Z,34.05
2018-11-02T21:43:53.444Z,35.30
2018-11-02T21:46:21.391Z,35.35
2018-11-02T21:48:49.466Z,36.00
2018-11-02T21:51:17.666Z,37.17
2018-11-02T21:53:45.795Z,35.85
2018-11-02T21:56:13.912Z,38.25
2018-11-02T21:58:42.180Z,37.25
2018-11-02T22:01:10.193Z,38.40
2018-11-02T22:03:38.309Z,36.98
2018-11-02T22:06:06.437Z,37.70
2018-11-02T22:08:34.368Z,37.63
2018-11-02T22:11:02.372Z,36.08
2018-11-02T22:13:30.353Z,36.70
2018-11-02T22:15:58.305Z,34.30
2018-11-02T22:18:26.253Z,34.27
2018-11-02T22:20:54.220Z,35.35
2018-11-02T22:23:22.108Z,34.67
2018-11-02T22:25:50.051Z,36.85
2018-11-02T22:28:17.978Z,36.42
2018-11-02T22:30:45.894Z,35.83
2018-11-02T22:33:13.860Z,36.40
2018-11-02T22:35:41.787Z,37.38
2018-11-02T22:38:09.710Z,37.15
2018-11-02T22:40:37.617Z,37.63
2018-11-02T22:43:05.601Z,35.70
2018-11-02T22:45:33.548Z,36.90
2018-11-02T22:48:06.972Z,35.60
2018-11-02T22:50:34.901Z,35.03
2018-11-02T22:53:02.807Z,35.70
2018-11-02T22:55:30.732Z,36.17
2018-11-02T22:57:58.696Z,35.05
2018-11-02T23:00:26.694Z,33.80
2018-11-02T23:02:54.779Z,33.98
2018-11-02T23:05:27.682Z,33.30
2018-11-02T23:07:59.636Z,32.10
2018-11-02T23:10:29.549Z,32.55
2018-11-02T23:12:59.321Z,31.25
2018-11-02T23:15:27.451Z,31.60
2018-11-02T23:17:55.677Z,30.23
2018-11-02T23:20:24.855Z,29.27
2018-11-02T23:22:52.960Z,29.20
2018-11-02T23:25:22.148Z,29.00
2018-11-02T23:27:50.441Z,28.62
